Time;durP1;ratioP1;P1;durP2;ratioP2;P2;SDS_P1;SDS_P2;PMS_P1;PMS_P2;Temp;Humidity;BMP_temperature;BMP_pressure;BME280_temperature;BME280_humidity;BME280_pressure;Samples;Min_cycle;Max_cycle;Signal;HPM_P1;HPM_P2
2022/07/13 00:01:12;;;;;;;1.30;1.20;;;;;;;;;;5041950;28;20252;-80
2022/07/13 00:03:39;;;;;;;3.53;1.95;;;;;;;;;;5037756;28;20299;-81
2022/07/13 00:06:07;;;;;;;1.90;1.53;;;;;;;;;;5038547;28;20220;-79
2022/07/13 00:08:34;;;;;;;3.27;2.20;;;;;;;;;;5042547;28;20615;-79
2022/07/13 00:11:01;;;;;;;1.63;1.53;;;;;;;;;;5043544;28;20241;-80
2022/07/13 00:13:29;;;;;;;2.10;1.73;;;;;;;;;;5044815;28;20250;-79
2022/07/13 00:15:56;;;;;;;1.80;1.50;;;;;;;;;;5043547;28;20252;-81
2022/07/13 00:18:24;;;;;;;1.50;1.40;;;;;;;;;;5050077;28;20676;-82
2022/07/13 00:20:51;;;;;;;1.40;1.30;;;;;;;;;;5049319;28;20206;-81
2022/07/13 00:23:19;;;;;;;2.40;1.20;;;;;;;;;;5045796;28;20627;-80
2022/07/13 00:25:46;;;;;;;1.63;1.13;;;;;;;;;;5049838;28;20291;-80
2022/07/13 00:28:13;;;;;;;1.70;1.20;;;;;;;;;;5044366;28;20709;-80
2022/07/13 00:30:41;;;;;;;2.40;2.13;;;;;;;;;;5048314;28;20206;-79
2022/07/13 00:33:08;;;;;;;1.90;1.80;;;;;;;;;;5045161;28;20291;-79
2022/07/13 00:35:35;;;;;;;1.90;1.80;;;;;;;;;;5047292;28;20360;-80
2022/07/13 00:38:03;;;;;;;2.50;2.00;;;;;;;;;;5049111;28;20272;-78
2022/07/13 00:40:30;;;;;;;2.53;1.70;;;;;;;;;;5048052;28;20209;-81
2022/07/13 00:42:57;;;;;;;2.40;1.80;;;;;;;;;;5043006;28;20214;-79
2022/07/13 00:45:24;;;;;;;3.07;1.80;;;;;;;;;;5051931;28;20229;-81
2022/07/13 00:47:52;;;;;;;2.13;1.93;;;;;;;;;;5042608;28;20202;-80
2022/07/13 00:50:19;;;;;;;1.60;1.50;;;;;;;;;;5048811;28;20975;-80
2022/07/13 00:52:47;;;;;;;1.73;1.40;;;;;;;;;;5046010;28;20317;-81
2022/07/13 00:55:15;;;;;;;1.30;1.30;;;;;;;;;;5045589;28;20780;-81
2022/07/13 00:57:42;;;;;;;1.30;1.23;;;;;;;;;;5048103;28;20690;-81
2022/07/13 01:00:10;;;;;;;1.80;1.17;;;;;;;;;;5050129;28;20256;-80
2022/07/13 01:02:38;;;;;;;1.17;1.17;;;;;;;;;;5042931;28;20627;-78
2022/07/13 01:05:06;;;;;;;1.17;1.17;;;;;;;;;;5048686;28;20240;-80
2022/07/13 01:07:34;;;;;;;1.93;1.40;;;;;;;;;;5052844;28;20210;-81
2022/07/13 01:10:05;;;;;;;3.37;1.40;;;;;;;;;;5050778;28;20292;-80
2022/07/13 01:12:33;;;;;;;1.33;1.23;;;;;;;;;;5046370;28;20742;-81
2022/07/13 01:15:01;;;;;;;1.43;1.30;;;;;;;;;;5049042;28;20292;-82
2022/07/13 01:17:29;;;;;;;1.27;1.20;;;;;;;;;;5037728;28;20203;-79
2022/07/13 01:19:57;;;;;;;1.60;1.10;;;;;;;;;;5053491;28;20198;-81
2022/07/13 01:22:35;;;;;;;1.50;1.40;;;;;;;;;;5050046;28;20293;-81
2022/07/13 01:25:04;;;;;;;1.03;1.00;;;;;;;;;;5057519;28;20222;-78
2022/07/13 01:27:35;;;;;;;2.23;0.97;;;;;;;;;;5045158;28;20206;-81
2022/07/13 01:30:03;;;;;;;3.20;1.47;;;;;;;;;;5049591;28;20214;-79
2022/07/13 01:32:41;;;;;;;1.30;1.20;;;;;;;;;;5047541;28;20260;-79
2022/07/13 01:35:09;;;;;;;1.77;1.20;;;;;;;;;;5045853;28;20241;-79
2022/07/13 01:37:36;;;;;;;1.03;1.03;;;;;;;;;;5051296;28;20202;-79
2022/07/13 01:40:04;;;;;;;1.73;1.40;;;;;;;;;;5047747;28;20738;-79
2022/07/13 01:42:31;;;;;;;1.57;1.20;;;;;;;;;;5047822;28;20209;-79
2022/07/13 01:44:59;;;;;;;2.50;1.60;;;;;;;;;;5044397;28;21299;-81
2022/07/13 01:47:26;;;;;;;1.10;1.10;;;;;;;;;;5051307;28;20265;-79
2022/07/13 01:49:53;;;;;;;1.77;1.20;;;;;;;;;;5048877;28;21064;-79
2022/07/13 01:52:21;;;;;;;1.20;1.20;;;;;;;;;;5050941;28;20207;-79
2022/07/13 01:54:48;;;;;;;1.63;1.53;;;;;;;;;;5047292;28;20230;-79
2022/07/13 01:57:15;;;;;;;1.33;1.20;;;;;;;;;;5041859;28;20214;-77
2022/07/13 01:59:43;;;;;;;1.50;1.40;;;;;;;;;;5039230;28;20210;-81
2022/07/13 02:02:10;;;;;;;1.23;1.17;;;;;;;;;;5043562;28;20260;-81
2022/07/13 02:04:37;;;;;;;1.20;1.20;;;;;;;;;;5041924;28;20206;-78
2022/07/13 02:07:04;;;;;;;1.20;1.20;;;;;;;;;;5042529;28;20233;-78
2022/07/13 02:09:32;;;;;;;1.10;1.10;;;;;;;;;;5043444;28;20658;-80
2022/07/13 02:11:59;;;;;;;1.30;1.30;;;;;;;;;;5044316;28;20229;-80
2022/07/13 02:14:26;;;;;;;1.53;1.43;;;;;;;;;;5042389;28;20230;-79
2022/07/13 02:16:54;;;;;;;1.53;1.30;;;;;;;;;;5044890;28;20574;-79
2022/07/13 02:19:21;;;;;;;2.80;1.40;;;;;;;;;;5048845;28;20671;-80
2022/07/13 02:21:49;;;;;;;2.00;1.43;;;;;;;;;;5042604;28;20214;-80
2022/07/13 02:24:16;;;;;;;1.63;1.53;;;;;;;;;;5048007;28;20841;-81
2022/07/13 02:26:43;;;;;;;1.63;1.53;;;;;;;;;;5047517;28;20335;-79
2022/07/13 02:29:11;;;;;;;1.53;1.40;;;;;;;;;;5047029;28;22816;-76
2022/07/13 02:31:38;;;;;;;1.90;1.70;;;;;;;;;;5041668;28;20198;-82
2022/07/13 02:34:05;;;;;;;1.90;1.80;;;;;;;;;;5050727;28;20309;-80
2022/07/13 02:36:32;;;;;;;1.63;1.53;;;;;;;;;;5050983;28;20230;-80
2022/07/13 02:39:00;;;;;;;1.20;1.20;;;;;;;;;;5044116;28;20202;-79
2022/07/13 02:41:27;;;;;;;2.17;1.97;;;;;;;;;;5039096;28;20253;-79
2022/07/13 02:43:54;;;;;;;1.67;1.53;;;;;;;;;;5040752;28;20584;-80
2022/07/13 02:46:21;;;;;;;1.50;1.40;;;;;;;;;;5042227;28;20288;-82
2022/07/13 02:48:49;;;;;;;1.60;1.50;;;;;;;;;;5040459;28;20217;-79
2022/07/13 02:51:16;;;;;;;1.50;1.40;;;;;;;;;;5043229;28;20340;-82
2022/07/13 02:53:43;;;;;;;1.60;1.50;;;;;;;;;;5046476;28;20647;-81
2022/07/13 02:56:11;;;;;;;1.60;1.50;;;;;;;;;;5040525;28;20218;-80
2022/07/13 02:58:38;;;;;;;1.50;1.40;;;;;;;;;;5040286;28;20637;-80
2022/07/13 03:01:05;;;;;;;1.47;1.37;;;;;;;;;;5050169;28;20271;-80
2022/07/13 03:03:33;;;;;;;1.20;1.20;;;;;;;;;;5041316;28;20206;-79
2022/07/13 03:06:01;;;;;;;2.17;1.27;;;;;;;;;;5043871;28;20230;-82
2022/07/13 03:08:28;;;;;;;1.93;1.40;;;;;;;;;;5041690;28;20210;-79
2022/07/13 03:10:56;;;;;;;1.70;1.60;;;;;;;;;;5027753;28;20293;-81
2022/07/13 03:13:23;;;;;;;1.40;1.40;;;;;;;;;;5035690;28;20231;-82
2022/07/13 03:15:50;;;;;;;1.57;1.50;;;;;;;;;;5039438;28;20227;-78
2022/07/13 03:18:17;;;;;;;1.40;1.30;;;;;;;;;;5038093;28;20229;-79
2022/07/13 03:20:45;;;;;;;1.47;1.47;;;;;;;;;;5021891;28;20573;-82
2022/07/13 03:23:12;;;;;;;1.60;1.50;;;;;;;;;;5044144;28;20227;-80
2022/07/13 03:25:39;;;;;;;1.87;1.77;;;;;;;;;;5043225;28;20230;-81
2022/07/13 03:28:06;;;;;;;1.70;1.60;;;;;;;;;;5026083;28;20225;-79
2022/07/13 03:30:34;;;;;;;1.97;1.47;;;;;;;;;;5025603;28;20218;-80
2022/07/13 03:33:01;;;;;;;1.70;1.60;;;;;;;;;;5024816;28;20261;-81
2022/07/13 03:35:29;;;;;;;2.27;1.50;;;;;;;;;;5041107;28;20214;-81
2022/07/13 03:37:56;;;;;;;1.83;1.73;;;;;;;;;;5037287;28;20220;-81
2022/07/13 03:40:24;;;;;;;1.50;1.40;;;;;;;;;;5036321;28;20248;-82
2022/07/13 03:42:51;;;;;;;1.60;1.50;;;;;;;;;;5040697;28;20251;-79
2022/07/13 03:45:19;;;;;;;1.50;1.40;;;;;;;;;;5037928;28;20685;-80
2022/07/13 03:47:46;;;;;;;1.60;1.50;;;;;;;;;;5044607;28;20218;-78
2022/07/13 03:50:14;;;;;;;1.90;1.50;;;;;;;;;;5039001;28;20209;-82
2022/07/13 03:52:44;;;;;;;2.60;1.40;;;;;;;;;;5038013;28;20294;-80
2022/07/13 03:55:12;;;;;;;1.47;1.30;;;;;;;;;;5036844;28;20279;-79
2022/07/13 03:57:39;;;;;;;1.70;1.60;;;;;;;;;;5043814;28;20264;-79
2022/07/13 04:00:07;;;;;;;1.73;1.53;;;;;;;;;;5038169;28;20238;-81
2022/07/13 04:02:34;;;;;;;1.83;1.50;;;;;;;;;;5039005;28;20222;-79
2022/07/13 04:05:02;;;;;;;1.73;1.63;;;;;;;;;;5043390;28;20320;-81
2022/07/13 04:07:29;;;;;;;3.80;2.70;;;;;;;;;;5047825;28;20237;-82
2022/07/13 04:09:56;;;;;;;2.20;1.67;;;;;;;;;;5045017;28;20207;-81
2022/07/13 04:12:24;;;;;;;1.97;1.67;;;;;;;;;;5044778;28;20256;-80
2022/07/13 04:14:51;;;;;;;2.47;2.27;;;;;;;;;;5035979;28;20264;-80
2022/07/13 04:17:18;;;;;;;2.53;2.07;;;;;;;;;;5042046;28;20684;-80
2022/07/13 04:19:45;;;;;;;2.90;1.70;;;;;;;;;;5043794;28;20511;-82
2022/07/13 04:22:13;;;;;;;2.40;1.40;;;;;;;;;;5046428;28;20276;-81
2022/07/13 04:24:40;;;;;;;3.37;1.73;;;;;;;;;;5032579;28;20671;-80
2022/07/13 04:27:13;;;;;;;1.63;1.53;;;;;;;;;;5045858;28;20305;-83
2022/07/13 04:29:44;;;;;;;2.40;1.73;;;;;;;;;;5044356;28;20248;-84
2022/07/13 04:32:11;;;;;;;2.90;1.80;;;;;;;;;;5044421;28;20237;-82
2022/07/13 04:35:11;;;;;;;1.70;1.60;;;;;;;;;;5037318;28;20222;-83
2022/07/13 04:37:43;;;;;;;3.60;1.80;;;;;;;;;;5022034;28;20202;-83
2022/07/13 04:40:19;;;;;;;3.53;1.90;;;;;;;;;;5030877;28;20728;-84
2022/07/13 04:42:55;;;;;;;2.07;1.83;;;;;;;;;;5047244;28;20317;-85
2022/07/13 04:45:29;;;;;;;1.67;1.57;;;;;;;;;;5027969;28;20229;-84
2022/07/13 04:47:56;;;;;;;2.47;1.80;;;;;;;;;;5015046;28;20214;-84
2022/07/13 04:50:24;;;;;;;2.43;1.97;;;;;;;;;;5027105;28;20260;-83
2022/07/13 04:52:59;;;;;;;4.00;2.20;;;;;;;;;;5032029;28;20276;-82
2022/07/13 04:55:39;;;;;;;8.00;2.10;;;;;;;;;;5029183;28;20760;-83
2022/07/13 04:58:12;;;;;;;5.37;1.90;;;;;;;;;;5024807;28;20284;-81
2022/07/13 05:01:06;;;;;;;;;;;;;;;;;;;;;
2022/07/13 05:04:08;;;;;;;6.77;1.90;;;;;;;;;;5020172;28;20214;-80
2022/07/13 05:06:36;;;;;;;6.73;1.70;;;;;;;;;;5027538;28;20218;-83
2022/07/13 05:09:21;;;;;;;4.63;2.00;;;;;;;;;;5026206;28;20218;-84
2022/07/13 05:11:49;;;;;;;3.03;1.83;;;;;;;;;;5043421;28;20206;-83
2022/07/13 05:14:16;;;;;;;3.70;1.57;;;;;;;;;;5041404;28;20234;-80
2022/07/13 05:16:43;;;;;;;4.20;1.80;;;;;;;;;;5038683;28;20261;-83
2022/07/13 05:19:11;;;;;;;3.17;1.70;;;;;;;;;;5045529;28;20580;-80
2022/07/13 05:21:39;;;;;;;1.27;1.23;;;;;;;;;;5019151;28;20238;-80
2022/07/13 05:24:06;;;;;;;2.10;1.20;;;;;;;;;;5037055;28;20238;-79
2022/07/13 05:26:34;;;;;;;1.30;1.30;;;;;;;;;;5034024;28;20226;-82
2022/07/13 05:29:04;;;;;;;1.43;1.33;;;;;;;;;;5049649;28;20214;-81
2022/07/13 05:31:39;;;;;;;1.37;1.27;;;;;;;;;;5033386;28;20632;-84
2022/07/13 05:34:13;;;;;;;1.40;1.30;;;;;;;;;;5028094;28;20313;-84
2022/07/13 05:36:54;;;;;;;1.50;1.40;;;;;;;;;;5043648;28;20226;-83
2022/07/13 05:39:46;;;;;;;4.30;1.48;;;;;;;;;;5031084;28;20569;-83
2022/07/13 05:42:33;;;;;;;;;;;;;;;;;;;;;
2022/07/13 05:45:01;;;;;;;2.65;1.20;;;;;;;;;;5039359;28;20230;-81
2022/07/13 05:47:28;;;;;;;1.20;1.10;;;;;;;;;;5029548;28;20206;-84
2022/07/13 05:49:55;;;;;;;;;;;;;;;;;;5040218;28;20049;-81
2022/07/13 05:52:24;;;;;;;;;;;;;;;;;;5051472;28;19963;-81
2022/07/13 05:54:58;;;;;;;;;;;;;;;;;;5031915;28;19947;-83
2022/07/13 05:57:30;;;;;;;2.78;1.73;;;;;;;;;;5026545;28;19928;-82
2022/07/13 05:59:58;;;;;;;2.33;1.20;;;;;;;;;;5042423;28;20206;-85
2022/07/13 06:02:25;;;;;;;1.83;0.90;;;;;;;;;;5026536;28;20202;-83
2022/07/13 06:04:52;;;;;;;2.75;1.10;;;;;;;;;;5047225;28;20142;-81
2022/07/13 06:07:19;;;;;;;0.95;0.90;;;;;;;;;;5041939;28;20210;-83
2022/07/13 06:09:47;;;;;;;2.28;0.90;;;;;;;;;;5045735;28;20279;-83
2022/07/13 06:12:14;;;;;;;1.77;1.15;;;;;;;;;;5044075;28;20731;-83
2022/07/13 06:14:41;;;;;;;1.98;0.80;;;;;;;;;;5047853;28;20248;-81
2022/07/13 06:17:08;;;;;;;1.95;0.90;;;;;;;;;;5030070;28;20651;-84
2022/07/13 06:19:36;;;;;;;1.48;0.70;;;;;;;;;;5048735;28;20201;-81
2022/07/13 06:22:03;;;;;;;1.45;0.77;;;;;;;;;;5047711;28;20570;-81
2022/07/13 06:24:31;;;;;;;1.95;0.90;;;;;;;;;;5024694;28;20822;-81
2022/07/13 06:26:58;;;;;;;0.90;0.90;;;;;;;;;;5036320;28;20932;-81
2022/07/13 06:29:27;;;;;;;0.80;0.80;;;;;;;;;;5017696;28;20213;-77
2022/07/13 06:31:54;;;;;;;1.33;0.63;;;;;;;;;;5037645;28;20242;-81
2022/07/13 06:34:21;;;;;;;1.13;0.52;;;;;;;;;;5051505;28;20252;-81
2022/07/13 06:36:49;;;;;;;0.40;0.40;;;;;;;;;;5043618;28;20251;-82
2022/07/13 06:39:16;;;;;;;1.52;0.90;;;;;;;;;;5042937;28;20203;-83
2022/07/13 06:41:45;;;;;;;0.63;0.60;;;;;;;;;;5043577;28;20202;-82
2022/07/13 06:44:12;;;;;;;2.25;0.70;;;;;;;;;;5052806;28;20250;-84
2022/07/13 06:46:40;;;;;;;2.03;0.90;;;;;;;;;;5015582;28;22891;-82
2022/07/13 06:49:21;;;;;;;1.13;0.65;;;;;;;;;;5037060;28;20675;-82
2022/07/13 06:51:55;;;;;;;1.65;0.70;;;;;;;;;;5034702;28;20209;-85
2022/07/13 06:54:25;;;;;;;1.05;0.80;;;;;;;;;;5041680;28;20238;-81
2022/07/13 06:56:52;;;;;;;0.93;0.70;;;;;;;;;;5045600;28;20640;-82
2022/07/13 06:59:19;;;;;;;0.70;0.70;;;;;;;;;;5042622;28;20987;-80
2022/07/13 07:01:46;;;;;;;0.73;0.73;;;;;;;;;;5042296;28;20210;-81
2022/07/13 07:04:14;;;;;;;3.35;0.90;;;;;;;;;;5041136;28;20215;-82
2022/07/13 07:06:41;;;;;;;0.80;0.80;;;;;;;;;;5026530;28;20325;-81
2022/07/13 07:09:09;;;;;;;0.70;0.70;;;;;;;;;;5042312;28;20662;-82
2022/07/13 07:11:36;;;;;;;0.80;0.80;;;;;;;;;;5030561;28;20241;-84
2022/07/13 07:14:03;;;;;;;2.53;0.63;;;;;;;;;;5047922;28;21150;-81
2022/07/13 07:16:30;;;;;;;0.77;0.77;;;;;;;;;;5024041;28;20230;-82
2022/07/13 07:18:58;;;;;;;0.70;0.70;;;;;;;;;;5029128;28;20698;-81
2022/07/13 07:21:45;;;;;;;0.68;0.68;;;;;;;;;;5042470;28;20705;-80
2022/07/13 07:24:15;;;;;;;0.50;0.50;;;;;;;;;;5038503;28;20268;-83
2022/07/13 07:26:43;;;;;;;1.38;0.75;;;;;;;;;;5022523;28;20240;-83
2022/07/13 07:29:10;;;;;;;1.63;0.88;;;;;;;;;;5034555;28;20210;-85
2022/07/13 07:31:38;;;;;;;0.80;0.80;;;;;;;;;;5020817;28;20565;-82
2022/07/13 07:34:05;;;;;;;1.92;0.60;;;;;;;;;;5027752;28;20222;-83
2022/07/13 07:36:35;;;;;;;0.55;0.55;;;;;;;;;;5019868;28;20772;-81
2022/07/13 07:39:03;;;;;;;0.60;0.60;;;;;;;;;;5028332;28;20746;-84
2022/07/13 07:41:30;;;;;;;0.70;0.70;;;;;;;;;;5032620;28;20283;-79
2022/07/13 07:43:59;;;;;;;1.13;0.82;;;;;;;;;;5026506;28;20291;-82
2022/07/13 07:46:26;;;;;;;0.85;0.60;;;;;;;;;;5024139;28;20484;-78
2022/07/13 07:48:53;;;;;;;2.15;0.75;;;;;;;;;;5026716;28;20271;-82
2022/07/13 07:51:21;;;;;;;0.88;0.70;;;;;;;;;;5038156;28;20828;-84
2022/07/13 07:53:48;;;;;;;1.95;0.70;;;;;;;;;;5017265;28;20225;-82
2022/07/13 07:56:15;;;;;;;1.65;0.60;;;;;;;;;;5038359;28;20275;-86
2022/07/13 07:58:43;;;;;;;0.73;0.73;;;;;;;;;;5037048;28;20202;-83
2022/07/13 08:01:10;;;;;;;0.70;0.70;;;;;;;;;;5046102;28;20207;-83
2022/07/13 08:03:37;;;;;;;0.95;0.60;;;;;;;;;;5028728;28;20675;-82
2022/07/13 08:06:05;;;;;;;1.23;0.75;;;;;;;;;;5040361;28;20284;-80
2022/07/13 08:08:32;;;;;;;0.70;0.70;;;;;;;;;;5031073;28;20587;-81
2022/07/13 08:11:20;;;;;;;0.82;0.80;;;;;;;;;;5027950;28;22752;-85
2022/07/13 08:13:48;;;;;;;1.17;0.80;;;;;;;;;;5032447;28;20702;-80
2022/07/13 08:16:16;;;;;;;0.82;0.68;;;;;;;;;;5039138;28;20218;-80
2022/07/13 08:18:44;;;;;;;0.70;0.70;;;;;;;;;;5044367;28;20233;-82
2022/07/13 08:21:32;;;;;;;1.13;0.45;;;;;;;;;;5027701;28;20571;-79
2022/07/13 08:23:59;;;;;;;0.90;0.75;;;;;;;;;;5046946;28;20753;-80
2022/07/13 08:26:28;;;;;;;1.00;0.70;;;;;;;;;;5022993;28;20403;-84
2022/07/13 08:28:59;;;;;;;1.55;0.60;;;;;;;;;;5016867;28;20203;-81
2022/07/13 08:31:26;;;;;;;0.50;0.50;;;;;;;;;;5038495;28;20984;-79
2022/07/13 08:39:27;;;;;;;1.45;0.60;;;;;;;;;;5028036;28;20529;-79
2022/07/13 08:41:58;;;;;;;0.60;0.60;;;;;;;;;;5027063;28;20683;-81
2022/07/13 08:44:35;;;;;;;1.65;0.60;;;;;;;;;;5010617;28;20206;-84
2022/07/13 08:47:17;;;;;;;2.20;0.70;;;;;;;;;;5029141;28;20288;-80
2022/07/13 08:49:45;;;;;;;0.43;0.43;;;;;;;;;;5041221;28;20238;-82
2022/07/13 08:52:13;;;;;;;0.63;0.63;;;;;;;;;;5041322;28;20210;-81
2022/07/13 08:54:40;;;;;;;0.73;0.70;;;;;;;;;;5036628;28;20241;-80
2022/07/13 08:57:13;;;;;;;0.90;0.70;;;;;;;;;;5023747;28;20213;-83
2022/07/13 09:00:07;;;;;;;1.27;0.50;;;;;;;;;;5033500;28;20586;-84
2022/07/13 09:02:38;;;;;;;0.50;0.50;;;;;;;;;;5022328;28;20310;-83
2022/07/13 09:05:06;;;;;;;1.02;0.50;;;;;;;;;;5035690;28;20239;-83
2022/07/13 09:07:44;;;;;;;1.58;0.75;;;;;;;;;;5035695;28;20213;-81
2022/07/13 09:10:20;;;;;;;0.60;0.55;;;;;;;;;;5041141;28;20209;-82
2022/07/13 09:12:50;;;;;;;0.40;0.40;;;;;;;;;;5034911;28;20234;-80
2022/07/13 09:15:38;;;;;;;4.78;0.60;;;;;;;;;;5022883;28;20253;-83
2022/07/13 09:18:09;;;;;;;0.57;0.50;;;;;;;;;;5030237;28;20220;-81
2022/07/13 09:20:53;;;;;;;0.55;0.40;;;;;;;;;;5028216;28;20198;-83
2022/07/13 09:23:45;;;;;;;0.43;0.43;;;;;;;;;;5030180;28;20217;-81
2022/07/13 09:26:20;;;;;;;0.40;0.40;;;;;;;;;;5044862;28;20230;-82
2022/07/13 09:28:53;;;;;;;0.57;0.50;;;;;;;;;;5053274;28;20211;-81
2022/07/13 09:31:30;;;;;;;0.50;0.50;;;;;;;;;;5026353;28;20300;-82
2022/07/13 09:33:58;;;;;;;0.50;0.50;;;;;;;;;;5043134;28;20206;-77
2022/07/13 09:36:58;;;;;;;1.55;0.40;;;;;;;;;;5040144;28;20254;-80
2022/07/13 09:39:31;;;;;;;0.60;0.60;;;;;;;;;;5011549;28;20202;-83
2022/07/13 09:42:04;;;;;;;0.40;0.40;;;;;;;;;;5018262;28;20214;-82
2022/07/13 09:47:21;;;;;;;0.30;0.30;;;;;;;;;;5018651;28;20244;-78
2022/07/13 09:49:54;;;;;;;0.60;0.60;;;;;;;;;;5038277;28;21534;-82
2022/07/13 09:52:43;;;;;;;1.42;0.60;;;;;;;;;;5026896;28;20222;-82
2022/07/13 09:55:12;;;;;;;2.65;0.70;;;;;;;;;;5049363;28;20303;-81
2022/07/13 09:58:06;;;;;;;0.90;0.40;;;;;;;;;;5025179;28;20213;-81
2022/07/13 10:01:03;;;;;;;0.65;0.30;;;;;;;;;;5021518;28;20210;-81
2022/07/13 10:03:34;;;;;;;0.40;0.40;;;;;;;;;;5045690;28;20209;-80
2022/07/13 10:06:13;;;;;;;0.40;0.40;;;;;;;;;;5045366;28;20226;-84
2022/07/13 10:08:40;;;;;;;0.32;0.32;;;;;;;;;;5042922;28;20214;-82
2022/07/13 10:11:09;;;;;;;1.15;0.60;;;;;;;;;;5048838;28;20245;-83
2022/07/13 10:13:44;;;;;;;0.85;0.50;;;;;;;;;;5026296;28;20212;-83
2022/07/13 10:16:11;;;;;;;1.52;0.50;;;;;;;;;;5025058;28;20268;-80
2022/07/13 10:19:15;;;;;;;0.77;0.50;;;;;;;;;;5048318;28;20248;-83
2022/07/13 10:22:11;;;;;;;0.50;0.50;;;;;;;;;;5042928;28;20205;-81
2022/07/13 10:24:50;;;;;;;0.52;0.30;;;;;;;;;;5038484;28;20753;-82
2022/07/13 10:27:26;;;;;;;1.40;0.70;;;;;;;;;;5045970;28;20590;-83
2022/07/13 10:30:07;;;;;;;1.25;0.50;;;;;;;;;;5031447;28;20728;-81
2022/07/13 10:32:37;;;;;;;0.52;0.50;;;;;;;;;;5034100;28;20198;-78
2022/07/13 10:35:04;;;;;;;1.20;0.47;;;;;;;;;;5033049;28;20284;-84
2022/07/13 10:37:50;;;;;;;5.38;0.60;;;;;;;;;;5038751;28;20680;-82
2022/07/13 10:40:19;;;;;;;0.50;0.50;;;;;;;;;;5036298;28;20206;-81
2022/07/13 10:43:03;;;;;;;0.68;0.60;;;;;;;;;;5018483;28;20660;-80
2022/07/13 10:45:43;;;;;;;0.50;0.50;;;;;;;;;;5019681;28;20230;-84
2022/07/13 10:48:18;;;;;;;0.40;0.40;;;;;;;;;;5039180;28;20340;-84
2022/07/13 10:50:52;;;;;;;0.50;0.50;;;;;;;;;;5029020;28;20252;-83
2022/07/13 10:53:20;;;;;;;2.58;0.60;;;;;;;;;;5034875;28;20263;-80
2022/07/13 10:55:51;;;;;;;0.32;0.30;;;;;;;;;;5034292;28;20283;-84
2022/07/13 10:58:33;;;;;;;0.57;0.50;;;;;;;;;;5022275;28;21634;-83
2022/07/13 11:01:01;;;;;;;0.43;0.43;;;;;;;;;;5035032;28;20287;-81
2022/07/13 11:03:47;;;;;;;0.38;0.38;;;;;;;;;;5027138;28;20701;-80
2022/07/13 11:06:25;;;;;;;0.40;0.40;;;;;;;;;;5036023;28;20218;-85
2022/07/13 11:09:08;;;;;;;0.70;0.68;;;;;;;;;;5040199;28;20212;-83
2022/07/13 11:11:45;;;;;;;0.50;0.40;;;;;;;;;;5041118;28;20206;-82
2022/07/13 11:14:40;;;;;;;0.68;0.55;;;;;;;;;;5038689;28;20203;-82
2022/07/13 11:17:15;;;;;;;0.52;0.35;;;;;;;;;;5049295;28;20210;-79
2022/07/13 11:20:09;;;;;;;0.50;0.50;;;;;;;;;;5041009;28;20306;-83
2022/07/13 11:26:05;;;;;;;1.77;0.52;;;;;;;;;;5036644;28;20278;-77
2022/07/13 11:29:03;;;;;;;1.20;0.30;;;;;;;;;;5042092;28;20206;-81
2022/07/13 11:31:31;;;;;;;0.95;0.40;;;;;;;;;;5036529;28;20293;-84
2022/07/13 11:33:58;;;;;;;0.43;0.43;;;;;;;;;;5042073;28;20209;-84
2022/07/13 11:36:26;;;;;;;0.68;0.40;;;;;;;;;;5038308;28;20291;-82
2022/07/13 11:38:59;;;;;;;0.40;0.40;;;;;;;;;;5024532;28;20218;-82
2022/07/13 11:41:30;;;;;;;1.30;0.50;;;;;;;;;;5038923;28;20271;-80
2022/07/13 11:43:57;;;;;;;0.50;0.50;;;;;;;;;;5027214;28;20206;-80
2022/07/13 11:46:31;;;;;;;0.40;0.40;;;;;;;;;;5048607;28;20238;-81
2022/07/13 11:48:59;;;;;;;0.63;0.40;;;;;;;;;;5028994;28;20207;-80
2022/07/13 11:51:26;;;;;;;0.30;0.30;;;;;;;;;;5039039;28;20242;-83
2022/07/13 11:53:54;;;;;;;0.73;0.25;;;;;;;;;;5034686;28;20210;-83
2022/07/13 11:56:24;;;;;;;0.50;0.50;;;;;;;;;;5024940;28;20235;-85
2022/07/13 11:59:14;;;;;;;0.50;0.50;;;;;;;;;;5032027;28;20214;-84
2022/07/13 12:01:52;;;;;;;0.40;0.40;;;;;;;;;;5040279;28;20206;-80
2022/07/13 12:04:24;;;;;;;0.50;0.50;;;;;;;;;;5019948;28;20225;-85
2022/07/13 12:06:52;;;;;;;0.40;0.40;;;;;;;;;;5030786;28;20233;-86
2022/07/13 12:09:20;;;;;;;0.40;0.40;;;;;;;;;;5017571;28;20566;-80
2022/07/13 12:12:12;;;;;;;0.40;0.40;;;;;;;;;;5030682;28;20218;-82
2022/07/13 12:14:54;;;;;;;0.32;0.30;;;;;;;;;;5000590;28;20248;-83
2022/07/13 12:17:25;;;;;;;0.90;0.45;;;;;;;;;;5036304;28;20293;-86
2022/07/13 12:19:52;;;;;;;0.22;0.22;;;;;;;;;;5023170;28;20206;-83
2022/07/13 12:22:23;;;;;;;0.40;0.40;;;;;;;;;;5045747;28;20292;-79
2022/07/13 12:24:51;;;;;;;0.40;0.40;;;;;;;;;;5044258;28;20227;-80
2022/07/13 12:27:25;;;;;;;0.30;0.30;;;;;;;;;;5015999;28;20285;-80
2022/07/13 12:29:52;;;;;;;0.35;0.35;;;;;;;;;;5030775;28;20699;-79
2022/07/13 12:32:20;;;;;;;0.40;0.40;;;;;;;;;;5024865;28;20202;-82
2022/07/13 12:34:52;;;;;;;0.60;0.60;;;;;;;;;;5026641;28;20198;-80
2022/07/13 12:37:32;;;;;;;0.40;0.40;;;;;;;;;;5021264;28;21239;-81
2022/07/13 12:39:59;;;;;;;1.10;0.30;;;;;;;;;;5041917;28;20620;-82
2022/07/13 12:42:27;;;;;;;1.33;0.30;;;;;;;;;;5044677;28;20202;-79
2022/07/13 12:44:55;;;;;;;0.20;0.20;;;;;;;;;;5040945;28;20268;-84
2022/07/13 12:47:24;;;;;;;0.57;0.50;;;;;;;;;;5030063;28;20282;-80
2022/07/13 12:49:52;;;;;;;0.80;0.50;;;;;;;;;;5035784;28;20588;-81
2022/07/13 12:52:19;;;;;;;0.30;0.30;;;;;;;;;;5030594;28;20747;-79
2022/07/13 12:54:48;;;;;;;1.10;0.40;;;;;;;;;;5031852;28;20202;-81
2022/07/13 12:57:18;;;;;;;0.40;0.40;;;;;;;;;;5021618;28;20222;-82
2022/07/13 13:00:12;;;;;;;0.30;0.30;;;;;;;;;;5035749;28;20225;-82
2022/07/13 13:02:47;;;;;;;0.30;0.30;;;;;;;;;;5022279;28;20205;-83
2022/07/13 13:05:14;;;;;;;0.35;0.35;;;;;;;;;;5039116;28;20230;-81
2022/07/13 13:07:42;;;;;;;0.40;0.40;;;;;;;;;;5021759;28;20941;-82
2022/07/13 13:10:10;;;;;;;0.20;0.20;;;;;;;;;;5036578;28;20222;-83
2022/07/13 13:12:38;;;;;;;0.57;0.30;;;;;;;;;;5035067;28;20233;-83
2022/07/13 13:15:08;;;;;;;0.40;0.30;;;;;;;;;;5035629;28;20294;-80
2022/07/13 13:17:35;;;;;;;0.63;0.40;;;;;;;;;;5044303;28;20095;-79
2022/07/13 13:20:02;;;;;;;1.13;0.40;;;;;;;;;;5033712;28;20341;-80
2022/07/13 13:22:39;;;;;;;0.38;0.38;;;;;;;;;;5047134;28;20213;-81
2022/07/13 13:25:06;;;;;;;0.40;0.40;;;;;;;;;;5036503;28;20590;-80
2022/07/13 13:27:34;;;;;;;0.30;0.30;;;;;;;;;;5037546;28;20229;-82
2022/07/13 13:33:07;;;;;;;0.30;0.30;;;;;;;;;;5031774;28;20236;-83
2022/07/13 13:35:34;;;;;;;0.85;0.60;;;;;;;;;;5040070;28;20320;-85
2022/07/13 13:38:02;;;;;;;1.23;0.50;;;;;;;;;;5037348;28;21050;-81
2022/07/13 13:40:29;;;;;;;1.30;0.30;;;;;;;;;;5039537;28;20225;-79
2022/07/13 13:42:56;;;;;;;1.27;0.40;;;;;;;;;;5034758;28;20656;-81
2022/07/13 13:45:23;;;;;;;0.50;0.30;;;;;;;;;;5031554;28;22039;-82
2022/07/13 13:47:51;;;;;;;0.30;0.30;;;;;;;;;;5033876;28;20302;-81
2022/07/13 13:50:18;;;;;;;0.28;0.28;;;;;;;;;;5036996;28;20205;-80
2022/07/13 13:52:45;;;;;;;0.88;0.40;;;;;;;;;;5027722;28;20214;-81
2022/07/13 13:55:13;;;;;;;0.85;0.50;;;;;;;;;;5031654;28;20722;-81
2022/07/13 13:57:40;;;;;;;3.70;0.60;;;;;;;;;;5033240;28;20297;-80
2022/07/13 14:00:10;;;;;;;0.47;0.47;;;;;;;;;;5032275;28;20300;-80
2022/07/13 14:02:55;;;;;;;1.10;0.40;;;;;;;;;;5029314;28;20487;-82
2022/07/13 14:05:25;;;;;;;0.50;0.50;;;;;;;;;;5036416;28;20598;-83
2022/07/13 14:07:58;;;;;;;0.22;0.20;;;;;;;;;;5021068;28;20212;-82
2022/07/13 14:10:27;;;;;;;0.40;0.40;;;;;;;;;;5043250;28;20201;-80
2022/07/13 14:12:54;;;;;;;1.40;1.30;;;;;;;;;;5035193;28;20710;-83
2022/07/13 14:15:22;;;;;;;0.43;0.43;;;;;;;;;;5018630;28;20654;-81
2022/07/13 14:17:49;;;;;;;0.50;0.50;;;;;;;;;;5039163;28;20631;-81
2022/07/13 14:20:17;;;;;;;1.63;0.45;;;;;;;;;;5038566;28;20216;-79
2022/07/13 14:22:48;;;;;;;0.65;0.40;;;;;;;;;;5037510;28;20198;-79
2022/07/13 14:25:15;;;;;;;1.48;0.38;;;;;;;;;;5030978;28;20733;-81
2022/07/13 14:27:43;;;;;;;1.08;0.50;;;;;;;;;;5038573;28;20221;-82
2022/07/13 14:30:11;;;;;;;3.25;0.57;;;;;;;;;;5037361;28;20195;-81
2022/07/13 14:32:38;;;;;;;0.30;0.30;;;;;;;;;;5039971;28;20209;-82
2022/07/13 14:35:07;;;;;;;1.05;0.95;;;;;;;;;;5041254;28;20235;-81
2022/07/13 14:37:45;;;;;;;0.30;0.30;;;;;;;;;;5027312;28;20258;-82
2022/07/13 14:40:33;;;;;;;0.40;0.40;;;;;;;;;;5033184;28;20213;-81
2022/07/13 14:43:00;;;;;;;1.67;0.55;;;;;;;;;;5025913;28;20198;-80
2022/07/13 14:45:28;;;;;;;0.40;0.40;;;;;;;;;;5026398;28;20223;-80
2022/07/13 14:47:56;;;;;;;0.40;0.40;;;;;;;;;;5032761;28;20207;-86
2022/07/13 14:50:43;;;;;;;0.40;0.40;;;;;;;;;;5020642;28;20210;-81
2022/07/13 14:53:31;;;;;;;1.23;0.57;;;;;;;;;;5032757;28;20206;-87
2022/07/13 14:55:58;;;;;;;0.50;0.50;;;;;;;;;;5036779;28;20225;-85
2022/07/13 14:58:25;;;;;;;1.77;0.50;;;;;;;;;;5042082;28;20202;-82
2022/07/13 15:00:53;;;;;;;0.38;0.38;;;;;;;;;;5039178;28;20206;-86
2022/07/13 15:03:20;;;;;;;0.50;0.50;;;;;;;;;;5054000;28;20198;-84
2022/07/13 15:05:48;;;;;;;1.08;0.60;;;;;;;;;;5042901;28;20277;-84
2022/07/13 15:08:15;;;;;;;1.35;0.70;;;;;;;;;;5042629;28;20210;-84
2022/07/13 15:10:43;;;;;;;1.30;0.60;;;;;;;;;;5041759;28;20651;-85
2022/07/13 15:13:10;;;;;;;0.88;0.55;;;;;;;;;;5035512;28;20206;-82
2022/07/13 15:15:37;;;;;;;6.13;0.50;;;;;;;;;;5039433;28;20945;-85
2022/07/13 15:18:05;;;;;;;1.05;0.60;;;;;;;;;;5039762;28;20214;-84
2022/07/13 15:20:39;;;;;;;1.02;0.60;;;;;;;;;;5041880;28;20195;-83
2022/07/13 15:23:07;;;;;;;3.22;0.70;;;;;;;;;;5041316;28;20198;-85